Time;durP1;ratioP1;P1;durP2;ratioP2;P2;SDS_P1;SDS_P2;PMS_P1;PMS_P2;Temp;Humidity;BMP_temperature;BMP_pressure;BME280_temperature;BME280_humidity;BME280_pressure;Samples;Min_cycle;Max_cycle;Signal;HPM_P1;HPM_P2
2023/09/20 00:00:35;;;;;;;5.13;2.47;;;;;;;18.65;58.10;98676.06;6861968;28;20253;-80
2023/09/20 00:03:59;;;;;;;2.93;2.33;;;;;;;18.44;57.97;98687.03;6861922;28;20231;-81
2023/09/20 00:07:21;;;;;;;2.87;2.60;;;;;;;18.71;57.44;98675.03;6865555;28;20217;-83
2023/09/20 00:10:45;;;;;;;3.67;2.30;;;;;;;18.47;57.82;98675.63;6872927;28;20303;-81
2023/09/20 00:14:07;;;;;;;3.23;2.70;;;;;;;18.33;58.17;98679.84;6873719;28;20722;-81
2023/09/20 00:17:28;;;;;;;4.10;2.60;;;;;;;18.52;58.00;98681.94;6866877;28;20325;-82
2023/09/20 00:20:50;;;;;;;2.63;2.43;;;;;;;18.57;58.11;98678.44;6862788;28;20340;-79
2023/09/20 00:24:13;;;;;;;3.57;2.60;;;;;;;18.67;57.71;98681.25;6866184;28;20298;-81
2023/09/20 00:27:35;;;;;;;3.00;2.37;;;;;;;18.85;57.41;98661.72;6866275;28;20245;-80
2023/09/20 00:30:57;;;;;;;2.67;2.30;;;;;;;18.49;57.55;98677.00;6865004;28;20652;-82
2023/09/20 00:34:18;;;;;;;4.73;2.50;;;;;;;18.54;57.52;98671.59;6864647;28;20574;-80
2023/09/20 00:37:40;;;;;;;7.10;2.67;;;;;;;18.37;57.62;98631.81;6865213;28;20228;-81
2023/09/20 00:41:06;;;;;;;3.00;2.30;;;;;;;18.34;58.44;98654.19;6884471;28;20205;-81
2023/09/20 00:44:28;;;;;;;5.17;2.60;;;;;;;18.56;57.92;98650.31;6891021;28;20228;-80
2023/09/20 00:47:55;;;;;;;3.83;2.50;;;;;;;18.40;57.55;98659.44;6891048;28;20211;-80
2023/09/20 00:51:17;;;;;;;2.53;2.30;;;;;;;18.28;57.78;98666.91;6886274;28;20193;-80
2023/09/20 00:54:38;;;;;;;2.87;2.57;;;;;;;18.06;58.25;98651.69;6864092;28;20711;-79
2023/09/20 00:58:07;;;;;;;3.30;2.93;;;;;;;18.04;58.15;98635.56;6864340;28;20280;-80
2023/09/20 01:01:28;;;;;;;3.00;2.13;;;;;;;18.82;56.33;98649.41;6864264;28;20657;-80
2023/09/20 01:04:50;;;;;;;3.83;2.70;;;;;;;18.52;56.65;98635.50;6864317;28;20304;-80
2023/09/20 01:08:12;;;;;;;4.60;2.67;;;;;;;18.13;58.07;98638.66;6864519;28;20204;-81
2023/09/20 01:11:33;;;;;;;3.07;2.77;;;;;;;18.43;57.66;98658.09;6864074;28;20209;-82
2023/09/20 01:14:56;;;;;;;6.07;2.87;;;;;;;18.51;57.54;98650.25;6864094;28;20713;-80
2023/09/20 01:18:18;;;;;;;4.00;2.60;;;;;;;17.98;57.85;98631.13;6864517;28;20326;-80
2023/09/20 01:21:42;;;;;;;7.63;2.83;;;;;;;18.01;58.61;98643.44;6863399;28;20302;-79
2023/09/20 01:25:11;;;;;;;2.63;2.43;;;;;;;18.29;58.07;98635.00;6863789;28;20576;-81
2023/09/20 01:28:32;;;;;;;6.23;2.63;;;;;;;18.10;58.19;98626.34;6863867;28;20196;-80
2023/09/20 01:32:01;;;;;;;2.97;2.27;;;;;;;17.63;58.91;98562.56;6863243;28;20236;-81
2023/09/20 01:35:23;;;;;;;4.37;2.40;;;;;;;17.47;59.13;98543.56;6863595;28;20235;-81
2023/09/20 01:38:46;;;;;;;2.77;2.27;;;;;;;18.27;58.14;98618.06;6863491;28;20234;-80
2023/09/20 01:42:07;;;;;;;3.83;2.60;;;;;;;18.33;57.96;98647.09;6863502;28;20367;-79
2023/09/20 01:45:29;;;;;;;2.87;2.67;;;;;;;18.44;58.14;98649.66;6864028;28;20302;-81
2023/09/20 01:48:50;;;;;;;4.83;2.63;;;;;;;17.80;58.30;98566.03;6864103;28;20332;-80
2023/09/20 01:52:12;;;;;;;3.63;2.90;;;;;;;18.02;58.98;98637.72;6863594;28;20381;-80
2023/09/20 01:55:37;;;;;;;4.03;2.40;;;;;;;18.05;58.97;98644.59;6863960;28;20283;-80
2023/09/20 01:58:59;;;;;;;3.50;2.80;;;;;;;18.00;58.92;98641.78;6863826;28;20215;-80
2023/09/20 02:02:22;;;;;;;3.30;2.70;;;;;;;17.89;59.60;98640.88;6863096;28;20239;-79
2023/09/20 02:05:46;;;;;;;3.30;2.37;;;;;;;17.92;58.84;98623.16;6863051;28;20217;-80
2023/09/20 02:09:08;;;;;;;4.83;2.30;;;;;;;18.27;57.99;98629.00;6863349;28;20212;-81
2023/09/20 02:12:31;;;;;;;9.10;3.10;;;;;;;18.11;58.42;98621.72;6862368;28;20232;-80
2023/09/20 02:15:53;;;;;;;4.77;2.63;;;;;;;18.03;58.44;98628.47;6862644;28;20238;-80
2023/09/20 02:19:17;;;;;;;3.37;2.73;;;;;;;17.99;58.57;98630.03;6862530;28;20269;-81
2023/09/20 02:22:40;;;;;;;5.30;2.93;;;;;;;17.73;58.90;98625.41;6862668;28;20232;-80
2023/09/20 02:26:01;;;;;;;4.10;2.70;;;;;;;17.92;58.99;98632.16;6862876;28;20683;-80
2023/09/20 02:29:24;;;;;;;4.23;2.63;;;;;;;17.92;58.97;98626.69;6862575;28;20350;-79
2023/09/20 02:32:46;;;;;;;3.30;2.30;;;;;;;18.30;56.99;98631.19;6862478;28;20318;-81
2023/09/20 02:36:10;;;;;;;2.80;2.60;;;;;;;17.17;59.82;98630.34;6862208;28;20781;-80
2023/09/20 02:39:32;;;;;;;6.70;3.00;;;;;;;17.49;59.34;98613.09;6863004;28;20303;-79
2023/09/20 02:42:55;;;;;;;3.77;2.50;;;;;;;17.78;59.63;98635.53;6861368;28;20374;-81
2023/09/20 02:46:18;;;;;;;3.77;2.60;;;;;;;17.63;59.37;98622.53;6862769;28;20793;-80
2023/09/20 02:49:40;;;;;;;3.60;2.70;;;;;;;17.88;58.85;98622.03;6862640;28;20220;-79
2023/09/20 02:53:01;;;;;;;5.13;2.97;;;;;;;17.54;59.29;98594.09;6862128;28;20258;-80
2023/09/20 02:56:23;;;;;;;3.63;2.93;;;;;;;17.85;59.01;98626.09;6862254;28;20383;-80
2023/09/20 02:59:44;;;;;;;5.53;2.60;;;;;;;18.08;58.49;98633.97;6862649;28;20208;-80
2023/09/20 03:03:08;;;;;;;3.67;2.70;;;;;;;17.81;58.35;98632.31;6862190;28;20279;-80
2023/09/20 03:06:30;;;;;;;3.43;2.43;;;;;;;16.98;59.75;98545.38;6862520;28;20207;-80
2023/09/20 03:09:52;;;;;;;3.57;2.67;;;;;;;17.67;59.34;98614.66;6862599;28;20204;-80
2023/09/20 03:13:16;;;;;;;3.30;2.97;;;;;;;17.64;59.37;98607.03;6862820;28;20239;-80
2023/09/20 03:16:37;;;;;;;6.00;2.73;;;;;;;17.77;59.41;98603.91;6864314;28;20706;-80
2023/09/20 03:20:00;;;;;;;3.43;2.70;;;;;;;17.78;58.50;98561.91;6865393;28;20256;-80
2023/09/20 03:23:22;;;;;;;3.23;2.80;;;;;;;17.53;58.89;98603.34;6862146;28;20231;-80
2023/09/20 03:26:44;;;;;;;4.33;2.90;;;;;;;17.54;59.65;98605.00;6861767;28;20212;-80
2023/09/20 03:30:11;;;;;;;2.73;2.53;;;;;;;17.15;59.60;98553.50;6861965;28;20674;-81
2023/09/20 03:33:32;;;;;;;3.63;2.47;;;;;;;17.35;59.85;98575.56;6860302;28;20236;-80
2023/09/20 03:36:57;;;;;;;2.90;2.63;;;;;;;17.78;58.52;98594.63;6861518;28;20235;-80
2023/09/20 03:40:20;;;;;;;2.90;2.60;;;;;;;17.65;59.09;98575.94;6861802;28;20222;-80
2023/09/20 03:43:41;;;;;;;4.77;2.60;;;;;;;17.52;59.52;98576.34;6861661;28;20232;-80
2023/09/20 03:47:04;;;;;;;3.87;2.50;;;;;;;17.40;59.77;98549.19;6861777;28;20649;-80
2023/09/20 03:50:26;;;;;;;9.43;2.60;;;;;;;16.83;59.71;98468.09;6862055;28;20216;-80
2023/09/20 03:53:49;;;;;;;5.20;3.00;;;;;;;17.52;60.07;98587.25;6861569;28;20233;-80
2023/09/20 03:57:11;;;;;;;3.60;2.50;;;;;;;17.96;58.99;98586.94;6867174;28;20695;-80
2023/09/20 04:00:34;;;;;;;4.93;2.90;;;;;;;17.86;58.39;98566.91;6866980;28;20297;-80
2023/09/20 04:03:56;;;;;;;5.27;3.17;;;;;;;17.29;59.46;98566.47;6867167;28;20703;-80
2023/09/20 04:07:18;;;;;;;4.27;2.90;;;;;;;17.34;59.98;98568.47;6866603;28;20671;-80
2023/09/20 04:10:42;;;;;;;3.17;2.80;;;;;;;17.51;59.33;98569.25;6866680;28;20339;-80
2023/09/20 04:14:03;;;;;;;5.13;3.13;;;;;;;17.44;59.50;98568.59;6866221;28;20245;-80
2023/09/20 04:17:25;;;;;;;3.47;3.17;;;;;;;17.44;59.73;98577.59;6866311;28;20592;-79
2023/09/20 04:20:47;;;;;;;5.97;3.40;;;;;;;17.32;59.88;98574.16;6865586;28;20222;-80
2023/09/20 04:24:09;;;;;;;4.97;3.37;;;;;;;17.34;59.38;98572.00;6866142;28;20246;-80
2023/09/20 04:27:32;;;;;;;3.47;3.17;;;;;;;17.18;61.02;98575.63;6866688;28;20242;-80
2023/09/20 04:30:53;;;;;;;4.23;2.70;;;;;;;17.30;59.97;98538.16;6865844;28;20201;-80
2023/09/20 04:34:15;;;;;;;4.97;2.90;;;;;;;17.65;59.06;98565.88;6865633;28;20791;-80
2023/09/20 04:37:36;;;;;;;5.83;3.07;;;;;;;17.38;59.42;98561.44;6865781;28;20321;-80
2023/09/20 04:40:59;;;;;;;3.30;2.80;;;;;;;17.18;59.40;98512.13;6865691;28;20303;-83
2023/09/20 04:44:22;;;;;;;3.63;2.80;;;;;;;17.55;58.70;98567.63;6865858;28;20227;-80
2023/09/20 04:47:44;;;;;;;3.57;3.00;;;;;;;17.35;58.41;98565.47;6865836;28;20258;-80
2023/09/20 04:51:05;;;;;;;3.63;2.77;;;;;;;16.99;57.70;98484.38;6865214;28;20208;-80
2023/09/20 04:54:27;;;;;;;5.33;3.10;;;;;;;17.68;57.56;98570.78;6865972;28;20271;-80
2023/09/20 04:57:48;;;;;;;5.37;3.10;;;;;;;17.26;58.77;98569.72;6865807;28;20322;-80
2023/09/20 05:01:12;;;;;;;7.20;3.20;;;;;;;17.23;59.28;98563.97;6864754;28;20365;-80
2023/09/20 05:04:34;;;;;;;4.87;3.03;;;;;;;17.11;59.73;98572.22;6866864;28;20289;-80
2023/09/20 05:07:56;;;;;;;2.97;2.67;;;;;;;17.52;59.13;98568.16;6865164;28;20581;-80
2023/09/20 05:11:19;;;;;;;4.03;3.20;;;;;;;17.75;57.77;98573.34;6865308;28;20223;-80
2023/09/20 05:14:42;;;;;;;5.67;2.77;;;;;;;17.63;57.48;98573.47;6865133;28;20243;-80
2023/09/20 05:18:06;;;;;;;4.57;2.70;;;;;;;17.23;58.67;98572.13;6865406;28;20287;-80
2023/09/20 05:21:28;;;;;;;5.40;2.90;;;;;;;16.91;60.24;98569.25;6864850;28;20219;-80
2023/09/20 05:24:49;;;;;;;5.90;2.93;;;;;;;16.75;61.20;98566.56;6869955;28;20303;-83
2023/09/20 05:28:11;;;;;;;3.23;2.90;;;;;;;17.40;60.03;98564.75;6874917;28;20234;-81
2023/09/20 05:31:33;;;;;;;5.03;2.83;;;;;;;17.30;60.26;98576.31;6875525;28;20207;-81
2023/09/20 05:34:56;;;;;;;4.60;2.70;;;;;;;17.63;59.66;98572.66;6868078;28;20254;-80
2023/09/20 05:38:18;;;;;;;3.47;2.97;;;;;;;17.63;59.30;98538.03;6865003;28;20745;-81
2023/09/20 05:41:40;;;;;;;3.60;2.60;;;;;;;18.02;58.28;98572.25;6864435;28;20573;-80
2023/09/20 05:45:02;;;;;;;4.23;2.63;;;;;;;17.75;58.94;98559.69;6866719;28;20205;-82
2023/09/20 05:48:23;;;;;;;3.27;2.90;;;;;;;18.00;58.58;98576.31;6869395;28;20212;-84
2023/09/20 05:51:46;;;;;;;4.83;2.80;;;;;;;18.01;58.39;98561.59;6864855;28;20321;-82
2023/09/20 05:55:11;;;;;;;3.23;2.93;;;;;;;18.34;57.77;98566.84;6866137;28;20247;-82
2023/09/20 05:58:34;;;;;;;3.70;3.13;;;;;;;18.34;57.58;98562.19;6865973;28;20279;-82
2023/09/20 06:01:55;;;;;;;4.07;2.70;;;;;;;18.36;58.34;98578.31;6864858;28;20229;-82
2023/09/20 06:05:18;;;;;;;5.13;3.17;;;;;;;17.98;60.23;98571.13;6866235;28;20229;-82
2023/09/20 06:08:42;;;;;;;4.57;2.63;;;;;;;18.72;58.74;98578.34;6868051;28;20224;-82
2023/09/20 06:12:04;;;;;;;2.73;2.30;;;;;;;20.02;54.18;98570.75;6888550;28;20225;-86
2023/09/20 06:15:25;;;;;;;2.10;1.90;;;;;;;20.83;51.69;98566.13;6868068;28;20280;-82
2023/09/20 06:18:48;;;;;;;2.77;2.37;;;;;;;21.32;51.08;98557.00;6883868;28;20644;-81
2023/09/20 06:22:12;;;;;;;3.47;2.40;;;;;;;21.64;50.65;98563.72;6890024;28;20232;-83
2023/09/20 06:25:35;;;;;;;3.47;2.20;;;;;;;22.03;49.86;98575.63;6891330;28;20219;-83
2023/09/20 06:28:57;;;;;;;4.33;2.40;;;;;;;21.80;51.00;98570.81;6890160;28;20302;-82
2023/09/20 06:32:20;;;;;;;7.67;2.80;;;;;;;22.50;48.90;98567.63;6889309;28;20233;-83
2023/09/20 06:35:43;;;;;;;3.97;2.80;;;;;;;22.52;48.53;98546.16;6889604;28;20208;-83
2023/09/20 06:39:06;;;;;;;3.13;2.23;;;;;;;22.69;48.24;98556.72;6886787;28;20233;-83
2023/09/20 06:42:29;;;;;;;2.80;2.20;;;;;;;23.80;45.13;98557.97;6862670;28;20229;-82
2023/09/20 06:45:52;;;;;;;3.63;2.43;;;;;;;24.45;43.65;98550.66;6862485;28;20205;-83
2023/09/20 06:49:13;;;;;;;2.40;2.20;;;;;;;24.69;43.96;98546.69;6862581;28;20212;-83
2023/09/20 06:52:35;;;;;;;2.00;1.83;;;;;;;25.00;42.02;98547.78;6861588;28;20231;-84
2023/09/20 06:55:59;;;;;;;4.00;2.10;;;;;;;25.12;42.62;98516.97;6862952;28;20777;-82
2023/09/20 06:59:22;;;;;;;2.63;2.03;;;;;;;25.74;40.63;98513.44;6862472;28;20715;-83
2023/09/20 07:02:46;;;;;;;3.33;2.17;;;;;;;25.34;41.88;98515.13;6862442;28;20276;-82
2023/09/20 07:06:07;;;;;;;1.73;1.63;;;;;;;26.34;39.23;98523.94;6864839;28;20207;-83
2023/09/20 07:09:31;;;;;;;2.53;1.97;;;;;;;26.35;39.29;98527.50;6864497;28;20290;-83
2023/09/20 07:12:54;;;;;;;2.23;1.90;;;;;;;25.76;38.97;98516.72;6861228;28;20296;-82
2023/09/20 07:16:17;;;;;;;2.27;1.93;;;;;;;26.26;38.38;98512.81;6862530;28;20686;-83
2023/09/20 07:19:39;;;;;;;2.53;1.87;;;;;;;26.44;38.88;98506.28;6860912;28;20236;-82
2023/09/20 07:23:00;;;;;;;2.13;1.83;;;;;;;26.81;37.76;98503.97;6861763;28;20255;-83
2023/09/20 07:26:26;;;;;;;2.10;2.00;;;;;;;26.19;38.49;98397.16;6862849;28;20687;-82
2023/09/20 07:29:51;;;;;;;1.97;1.77;;;;;;;27.44;37.64;98504.44;6865389;28;20247;-82
2023/09/20 07:33:19;;;;;;;2.47;1.60;;;;;;;27.80;35.98;98446.03;6867214;28;20726;-83
2023/09/20 07:36:43;;;;;;;2.90;1.80;;;;;;;27.84;36.44;98433.94;6868108;28;20208;-83
2023/09/20 07:40:06;;;;;;;2.10;1.90;;;;;;;27.73;36.11;98407.66;6868511;28;20624;-82
2023/09/20 07:43:28;;;;;;;2.93;1.80;;;;;;;27.73;35.23;98496.31;6867698;28;20738;-82
2023/09/20 07:46:52;;;;;;;2.00;1.90;;;;;;;28.19;35.73;98432.78;6868096;28;20297;-83
2023/09/20 07:50:16;;;;;;;2.13;1.80;;;;;;;28.38;34.83;98472.09;6868030;28;20558;-83
2023/09/20 07:53:39;;;;;;;2.23;1.70;;;;;;;28.48;35.17;98482.06;6868090;28;20387;-83
2023/09/20 07:57:01;;;;;;;2.67;2.07;;;;;;;27.65;36.93;98483.28;6867605;28;20212;-83
2023/09/20 08:00:22;;;;;;;3.70;2.03;;;;;;;28.35;36.03;98478.28;6868060;28;20237;-84
2023/09/20 08:03:50;;;;;;;1.90;1.70;;;;;;;29.00;34.63;98458.59;6867169;28;20265;-83
2023/09/20 08:07:13;;;;;;;2.10;1.90;;;;;;;29.26;33.37;98467.63;6868004;28;20224;-82
2023/09/20 08:10:37;;;;;;;3.90;2.30;;;;;;;29.39;33.00;98442.41;6868021;28;20216;-82
2023/09/20 08:14:00;;;;;;;2.10;1.90;;;;;;;28.36;33.61;98365.41;6867574;28;20230;-83
2023/09/20 08:21:01;;;;;;;1.93;1.77;;;;;;;28.10;32.51;98376.56;6867029;28;20190;-82
2023/09/20 09:00:58;;;;;;;1.80;1.70;;;;;;;28.44;35.75;98476.38;6869324;28;20186;-82
2023/09/20 09:04:19;;;;;;;1.80;1.67;;;;;;;28.36;36.04;98459.72;6874387;28;20229;-84
2023/09/20 09:07:41;;;;;;;2.97;2.03;;;;;;;28.69;33.98;98478.28;6876944;28;20618;-83
2023/09/20 09:11:03;;;;;;;3.07;1.80;;;;;;;28.95;31.52;98429.06;6876551;28;20215;-83
2023/09/20 09:14:24;;;;;;;1.70;1.60;;;;;;;29.64;29.94;98463.69;6876278;28;20315;-83
2023/09/20 09:17:48;;;;;;;2.17;1.60;;;;;;;30.01;30.04;98470.28;6871363;28;20277;-82
2023/09/20 09:21:11;;;;;;;3.77;2.10;;;;;;;29.41;29.59;98465.09;6867896;28;20303;-82
2023/09/20 09:24:42;;;;;;;2.13;1.63;;;;;;;29.53;31.12;98461.63;6868449;28;20349;-82
2023/09/20 09:28:04;;;;;;;2.63;1.80;;;;;;;29.80;29.50;98461.13;6868793;28;20190;-82
2023/09/20 09:31:29;;;;;;;2.83;1.90;;;;;;;30.48;29.11;98460.56;6867111;28;20244;-83
2023/09/20 09:34:52;;;;;;;3.33;2.30;;;;;;;30.53;29.94;98452.00;6868368;28;20202;-82
2023/09/20 09:38:21;;;;;;;2.63;2.10;;;;;;;30.02;29.68;98435.78;6877879;28;20317;-82
2023/09/20 09:41:43;;;;;;;3.87;2.00;;;;;;;29.86;30.54;98448.66;6875325;28;20207;-82
2023/09/20 09:45:06;;;;;;;2.03;1.93;;;;;;;30.05;30.02;98443.41;6869941;28;20223;-82
2023/09/20 09:48:29;;;;;;;2.00;1.80;;;;;;;30.51;29.69;98437.63;6870118;28;20219;-82
2023/09/20 09:51:52;;;;;;;2.53;1.90;;;;;;;30.59;28.86;98412.47;6869259;28;20292;-83
2023/09/20 09:55:14;;;;;;;3.17;2.23;;;;;;;30.70;28.05;98435.13;6870469;28;20256;-82
2023/09/20 09:58:36;;;;;;;2.33;1.90;;;;;;;29.65;29.54;98425.56;6871906;28;20315;-82
2023/09/20 10:01:57;;;;;;;2.77;2.10;;;;;;;29.54;30.03;98327.91;6870550;28;20252;-82
2023/09/20 10:05:20;;;;;;;2.67;2.10;;;;;;;31.21;28.31;98413.09;6844514;29;20224;-82
2023/09/20 10:08:43;;;;;;;3.37;2.40;;;;;;;30.62;28.31;98403.44;6844648;29;20209;-83
2023/09/20 10:12:05;;;;;;;2.27;2.03;;;;;;;30.63;27.63;98326.31;6844830;29;20315;-83
2023/09/20 10:15:27;;;;;;;2.40;1.97;;;;;;;31.71;27.45;98404.28;6845470;29;20229;-83
2023/09/20 10:18:58;;;;;;;2.30;2.10;;;;;;;30.77;28.89;98352.69;6845179;29;20234;-82
2023/09/20 10:22:21;;;;;;;3.23;2.10;;;;;;;31.52;28.09;98317.69;6845051;29;20226;-82
2023/09/20 10:25:48;;;;;;;2.43;2.20;;;;;;;31.47;28.20;98391.22;6844988;29;20214;-84
2023/09/20 10:29:25;;;;;;;4.20;2.00;;;;;;;31.68;28.05;98391.88;6853138;28;20577;-82
2023/09/20 10:32:54;;;;;;;5.13;2.97;;;;;;;30.23;29.36;98390.13;6874923;28;20229;-85
2023/09/20 10:36:19;;;;;;;2.53;2.00;;;;;;;30.94;28.57;98382.28;6877799;28;20197;-82
2023/09/20 10:39:42;;;;;;;2.87;2.20;;;;;;;31.05;27.51;98359.19;6876642;28;20869;-83
2023/09/20 10:43:05;;;;;;;3.87;2.30;;;;;;;31.25;27.45;98361.06;6869454;28;20320;-82
2023/09/20 10:46:35;;;;;;;3.23;2.30;;;;;;;31.90;26.80;98301.31;6864878;28;20243;-82
2023/09/20 10:49:58;;;;;;;3.00;2.67;;;;;;;32.12;26.58;98340.59;6866122;28;20187;-82
2023/09/20 10:53:22;;;;;;;3.50;2.53;;;;;;;31.30;27.35;98334.94;6866257;28;20319;-83
2023/09/20 10:56:44;;;;;;;3.33;2.23;;;;;;;30.07;27.37;98266.72;6864360;28;20208;-83
2023/09/20 11:00:08;;;;;;;2.37;2.17;;;;;;;31.35;27.39;98340.25;6862769;28;20239;-83
2023/09/20 11:03:30;;;;;;;3.23;2.23;;;;;;;31.73;26.85;98323.94;6862773;28;20239;-82
2023/09/20 11:06:53;;;;;;;2.57;2.37;;;;;;;31.85;25.86;98231.88;6862828;28;20217;-84
2023/09/20 11:10:19;;;;;;;3.10;2.20;;;;;;;30.22;27.54;98323.69;6863500;28;20202;-83
2023/09/20 11:13:46;;;;;;;2.83;2.40;;;;;;;31.75;26.40;98299.28;6863016;28;20268;-84
2023/09/20 11:17:13;;;;;;;2.87;2.40;;;;;;;32.34;24.17;98305.75;6862732;28;20623;-83
2023/09/20 11:20:35;;;;;;;2.93;2.60;;;;;;;32.58;23.62;98292.44;6863519;28;20241;-83
2023/09/20 11:23:56;;;;;;;2.57;2.37;;;;;;;32.36;23.96;98304.22;6862468;28;20226;-82
2023/09/20 11:27:18;;;;;;;2.63;2.37;;;;;;;33.47;23.36;98301.78;6863431;28;20211;-81
2023/09/20 11:30:40;;;;;;;2.20;2.00;;;;;;;32.21;24.34;98296.63;6862996;28;20665;-82
2023/09/20 11:34:04;;;;;;;2.73;2.20;;;;;;;32.23;24.12;98288.69;6865365;28;20373;-82
2023/09/20 11:37:26;;;;;;;2.73;2.33;;;;;;;31.61;24.74;98293.28;6864170;28;20328;-83
2023/09/20 11:40:48;;;;;;;3.10;2.20;;;;;;;31.86;25.26;98278.09;6861531;28;20567;-82
2023/09/20 11:44:09;;;;;;;1.90;1.80;;;;;;;31.15;25.09;98282.69;6863166;28;20301;-82
2023/09/20 11:47:32;;;;;;;2.40;2.13;;;;;;;32.31;24.77;98270.19;6862613;28;20275;-83
2023/09/20 11:50:55;;;;;;;1.97;1.80;;;;;;;32.09;24.51;98282.75;6862408;28;20303;-82
2023/09/20 11:54:16;;;;;;;2.43;1.90;;;;;;;32.32;24.14;98274.59;6863559;28;20595;-81
2023/09/20 11:57:38;;;;;;;1.40;1.27;;;;;;;32.24;24.43;98275.53;6862029;28;20210;-82
2023/09/20 12:01:00;;;;;;;2.50;1.63;;;;;;;31.71;25.77;98259.31;6860657;28;20710;-83
2023/09/20 12:04:21;;;;;;;2.03;1.83;;;;;;;31.80;24.85;98255.25;6860003;28;20265;-83
2023/09/20 12:07:55;;;;;;;2.67;2.03;;;;;;;31.85;25.52;98232.66;6861754;28;20367;-82
2023/09/20 12:11:17;;;;;;;1.70;1.53;;;;;;;31.54;26.59;98246.50;6859559;28;20344;-82
2023/09/20 12:14:38;;;;;;;2.10;1.80;;;;;;;32.38;25.58;98243.25;6862212;28;20238;-82
2023/09/20 12:18:00;;;;;;;1.50;1.40;;;;;;;32.73;25.51;98237.75;6867244;28;20687;-82
2023/09/20 12:21:22;;;;;;;2.07;1.80;;;;;;;32.89;25.96;98244.16;6866860;28;20271;-82
2023/09/20 12:24:45;;;;;;;2.63;1.60;;;;;;;32.87;26.16;98230.53;6867100;28;20231;-83
2023/09/20 12:28:08;;;;;;;2.43;1.53;;;;;;;33.02;26.04;98232.47;6867544;28;20309;-82
2023/09/20 12:31:30;;;;;;;3.43;1.73;;;;;;;32.88;26.08;98228.53;6867247;28;20335;-82
2023/09/20 12:34:54;;;;;;;1.70;1.60;;;;;;;33.41;25.53;98206.22;6868581;28;20726;-83
2023/09/20 12:38:16;;;;;;;2.90;1.70;;;;;;;33.29;25.73;98211.97;6868359;28;20269;-84
2023/09/20 12:41:40;;;;;;;2.93;1.60;;;;;;;32.53;27.00;98205.34;6867667;28;20247;-82
2023/09/20 12:45:04;;;;;;;2.67;1.60;;;;;;;32.34;27.11;98197.72;6867202;28;20208;-82
2023/09/20 12:48:26;;;;;;;2.50;1.80;;;;;;;32.13;27.26;98185.19;6867104;28;20213;-83
2023/09/20 12:51:47;;;;;;;1.73;1.40;;;;;;;32.63;26.42;98185.25;6866147;28;20270;-82
2023/09/20 12:55:10;;;;;;;2.10;1.90;;;;;;;33.23;26.42;98171.47;6867124;28;20303;-82
2023/09/20 12:58:33;;;;;;;2.57;1.93;;;;;;;33.21;26.46;98178.59;6867171;28;20210;-83
2023/09/20 13:01:55;;;;;;;4.43;1.60;;;;;;;32.51;26.76;98105.22;6866126;28;20282;-81
2023/09/20 13:05:16;;;;;;;1.97;1.50;;;;;;;32.70;26.34;98163.91;6865369;28;20243;-80
2023/09/20 13:08:39;;;;;;;1.70;1.40;;;;;;;32.20;26.83;98149.88;6861928;28;20572;-82
2023/09/20 13:12:01;;;;;;;2.30;1.50;;;;;;;32.86;27.13;98147.13;6858081;28;20231;-82
2023/09/20 13:15:24;;;;;;;1.30;1.20;;;;;;;32.09;27.82;98137.69;6866120;28;20206;-83
2023/09/20 13:18:46;;;;;;;1.60;1.50;;;;;;;32.49;27.10;98132.69;6865873;28;20243;-81
2023/09/20 13:22:08;;;;;;;1.70;1.50;;;;;;;31.71;26.93;98084.47;6865037;28;20257;-81
2023/09/20 13:25:31;;;;;;;1.73;1.37;;;;;;;31.73;28.11;98118.41;6865647;28;20282;-81
2023/09/20 13:28:53;;;;;;;1.40;1.30;;;;;;;32.38;27.08;98128.84;6865433;28;20210;-81
2023/09/20 13:32:16;;;;;;;1.40;1.30;;;;;;;32.93;26.58;98122.94;6865274;28;20316;-81
2023/09/20 13:35:39;;;;;;;1.60;1.50;;;;;;;32.87;27.12;98123.59;6866273;28;20204;-82
2023/09/20 13:39:00;;;;;;;1.73;1.63;;;;;;;32.65;27.08;98110.31;6865876;28;20289;-81
2023/09/20 13:42:22;;;;;;;1.60;1.43;;;;;;;32.96;26.39;98099.84;6865534;28;20321;-82
2023/09/20 13:45:43;;;;;;;2.10;1.60;;;;;;;32.75;25.27;98093.81;6865601;28;20242;-83
2023/09/20 13:49:07;;;;;;;2.70;1.70;;;;;;;33.04;26.44;98082.06;6865686;28;20213;-82
2023/09/20 13:52:29;;;;;;;2.47;1.67;;;;;;;32.54;26.59;98092.53;6864132;28;20690;-82
2023/09/20 13:56:01;;;;;;;2.30;1.40;;;;;;;32.85;26.37;98079.25;6865481;28;20226;-82
2023/09/20 13:59:24;;;;;;;1.40;1.30;;;;;;;32.86;25.89;98083.69;6857172;28;20226;-81
2023/09/20 14:02:47;;;;;;;1.40;1.30;;;;;;;32.88;26.91;98084.13;6864523;28;20309;-83
2023/09/20 14:06:10;;;;;;;2.87;1.50;;;;;;;32.92;26.12;98048.72;6864938;28;20214;-82
2023/09/20 14:09:32;;;;;;;1.93;1.57;;;;;;;32.87;25.70;98073.31;6864692;28;20206;-83
2023/09/20 14:12:53;;;;;;;2.60;1.40;;;;;;;32.11;25.77;97984.69;6864093;28;20242;-82
2023/09/20 14:16:16;;;;;;;1.40;1.30;;;;;;;32.60;25.74;98066.72;6863896;28;20689;-82
2023/09/20 14:19:38;;;;;;;3.13;1.23;;;;;;;32.40;25.75;98073.47;6863993;28;20241;-83
2023/09/20 14:23:02;;;;;;;1.90;1.40;;;;;;;31.83;26.12;97972.88;6864265;28;20236;-81
2023/09/20 14:26:23;;;;;;;1.73;1.50;;;;;;;31.70;26.72;97976.94;6864926;28;20217;-82
2023/09/20 14:29:45;;;;;;;2.37;1.43;;;;;;;31.35;26.42;97944.59;6864541;28;20214;-82
2023/09/20 14:33:08;;;;;;;1.80;1.70;;;;;;;31.70;27.44;98038.25;6862944;28;20368;-82
2023/09/20 14:36:29;;;;;;;1.53;1.43;;;;;;;31.91;27.97;98043.59;6864246;28;20213;-82
2023/09/20 14:39:56;;;;;;;2.50;1.40;;;;;;;32.30;27.28;98029.38;6863091;28;20328;-81
2023/09/20 14:43:17;;;;;;;3.10;1.60;;;;;;;32.08;26.90;98040.41;6863308;28;20279;-81
2023/09/20 14:46:40;;;;;;;2.77;1.70;;;;;;;32.26;27.22;98017.34;6862901;28;20267;-80
2023/09/20 14:50:02;;;;;;;2.47;1.50;;;;;;;32.16;27.37;98009.53;6862692;28;20218;-81
2023/09/20 14:53:25;;;;;;;1.97;1.27;;;;;;;32.42;26.44;98015.31;6863075;28;20227;-81
2023/09/20 14:56:48;;;;;;;2.57;1.80;;;;;;;32.44;26.29;98009.34;6864217;28;20222;-81
2023/09/20 15:00:16;;;;;;;1.30;1.20;;;;;;;32.33;27.55;98003.56;6863693;28;20281;-81
2023/09/20 15:03:37;;;;;;;2.50;1.80;;;;;;;31.97;27.75;98014.25;6863568;28;20318;-82
2023/09/20 15:06:59;;;;;;;1.50;1.40;;;;;;;31.45;28.30;97999.78;6863961;28;20261;-83
2023/09/20 15:10:21;;;;;;;3.67;2.03;;;;;;;31.52;28.25;97997.19;6855604;28;20304;-81
2023/09/20 15:13:45;;;;;;;2.07;1.60;;;;;;;31.88;28.99;97989.34;6862998;28;20324;-81
2023/09/20 15:17:06;;;;;;;2.67;1.43;;;;;;;32.31;27.25;97991.94;6863341;28;20220;-81
2023/09/20 15:20:29;;;;;;;1.60;1.50;;;;;;;31.65;27.88;97937.38;6863176;28;20648;-81
2023/09/20 15:23:51;;;;;;;3.17;1.90;;;;;;;31.80;28.04;97947.72;6863083;28;20287;-81
2023/09/20 15:27:13;;;;;;;2.33;1.70;;;;;;;32.04;28.49;97980.94;6864131;28;20249;-81
2023/09/20 15:30:37;;;;;;;4.17;2.40;;;;;;;31.18;28.98;97904.00;6862402;28;20238;-81
2023/09/20 15:34:00;;;;;;;5.00;3.50;;;;;;;31.63;28.97;97967.59;6864187;28;20308;-81
2023/09/20 15:37:23;;;;;;;2.47;2.00;;;;;;;31.42;29.14;97881.50;6872565;28;20219;-83
2023/09/20 15:40:45;;;;;;;2.03;1.70;;;;;;;32.01;28.56;97948.22;6874422;28;20687;-82
2023/09/20 15:44:08;;;;;;;2.00;1.60;;;;;;;31.97;28.80;97928.59;6873017;28;20250;-81
2023/09/20 15:47:31;;;;;;;3.50;1.73;;;;;;;32.21;28.70;97956.22;6872829;28;20722;-81
2023/09/20 15:50:54;;;;;;;1.70;1.47;;;;;;;31.52;29.05;97858.66;6864588;28;20241;-82
2023/09/20 15:54:16;;;;;;;2.90;2.00;;;;;;;32.19;28.85;97944.59;6868754;28;20272;-81
2023/09/20 15:57:37;;;;;;;2.80;1.70;;;;;;;31.76;29.08;97907.78;6867993;28;20205;-81
2023/09/20 16:00:59;;;;;;;2.27;1.70;;;;;;;31.82;29.01;97909.13;6867088;28;20257;-81
2023/09/20 16:04:22;;;;;;;1.90;1.60;;;;;;;31.66;29.01;97894.41;6867920;28;20236;-82
2023/09/20 16:07:44;;;;;;;4.33;1.97;;;;;;;31.86;29.86;97933.13;6868363;28;20546;-81
2023/09/20 16:11:06;;;;;;;3.40;2.47;;;;;;;31.88;30.68;97933.56;6868038;28;20216;-82
2023/09/20 16:14:28;;;;;;;2.77;1.90;;;;;;;31.38;31.53;97922.41;6867827;28;20239;-81
2023/09/20 16:17:52;;;;;;;2.93;1.97;;;;;;;31.63;32.03;97929.38;6868395;28;20299;-81
2023/09/20 16:21:15;;;;;;;4.90;1.93;;;;;;;31.42;32.80;97926.09;6867817;28;20235;-81
2023/09/20 16:24:37;;;;;;;3.00;2.20;;;;;;;30.95;32.44;97855.66;6867825;28;20814;-82
2023/09/20 16:27:59;;;;;;;2.73;1.87;;;;;;;30.69;33.01;97851.78;6867833;28;20728;-84
2023/09/20 16:31:20;;;;;;;3.87;2.03;;;;;;;31.01;33.51;97920.25;6867003;28;20233;-82
2023/09/20 16:34:42;;;;;;;2.27;1.80;;;;;;;30.55;34.40;97893.91;6866871;28;20270;-80